Time;durP1;ratioP1;P1;durP2;ratioP2;P2;SDS_P1;SDS_P2;PMS_P1;PMS_P2;Temp;Humidity;BMP_temperature;BMP_pressure;BME280_temperature;BME280_humidity;BME280_pressure;Samples;Min_cycle;Max_cycle;Signal;HPM_P1;HPM_P2
2022/01/11 00:01:42;;;;;;;38.73;13.17;;;1.80;99.90;;;;;;4933708;29;20628;-74
2022/01/11 00:04:08;;;;;;;24.07;12.77;;;1.90;99.90;;;;;;4933750;29;20178;-74
2022/01/11 00:06:40;;;;;;;23.43;11.33;;;1.90;99.90;;;;;;4933844;29;20401;-74
2022/01/11 00:09:20;;;;;;;21.87;12.23;;;2.00;99.90;;;;;;4933947;29;20796;-74
2022/01/11 00:11:47;;;;;;;31.70;12.93;;;1.90;99.90;;;;;;4933837;29;21128;-74
2022/01/11 00:14:13;;;;;;;18.13;11.33;;;2.00;99.90;;;;;;4933844;29;20401;-74
2022/01/11 00:16:38;;;;;;;21.07;10.77;;;2.00;99.90;;;;;;4934070;29;20461;-74
2022/01/11 00:19:06;;;;;;;23.67;13.50;;;1.90;99.90;;;;;;4933707;29;20185;-73
2022/01/11 00:21:33;;;;;;;25.50;13.17;;;1.90;99.90;;;;;;4933602;29;20645;-75
2022/01/11 00:26:44;;;;;;;25.50;12.17;;;1.90;99.90;;;;;;4934251;29;20461;-74
2022/01/11 00:29:09;;;;;;;23.23;12.57;;;1.90;99.90;;;;;;4934481;29;20474;-74
2022/01/11 00:31:35;;;;;;;20.03;11.80;;;1.90;99.90;;;;;;4937092;29;20879;-73
2022/01/11 00:34:02;;;;;;;20.23;11.13;;;1.90;99.90;;;;;;4937122;29;20579;-74
2022/01/11 00:36:40;;;;;;;30.33;13.10;;;2.00;99.90;;;;;;4937625;29;20641;-74
2022/01/11 00:39:06;;;;;;;24.80;12.30;;;2.00;99.90;;;;;;4936228;29;20440;-74
2022/01/11 00:41:31;;;;;;;23.17;13.40;;;1.90;99.90;;;;;;4936924;29;20495;-74
2022/01/11 00:43:57;;;;;;;27.17;12.90;;;1.90;99.90;;;;;;4936504;29;20422;-74
2022/01/11 00:46:23;;;;;;;28.80;13.97;;;1.90;99.90;;;;;;4936927;29;20209;-73
2022/01/11 00:48:48;;;;;;;23.53;14.30;;;1.90;99.90;;;;;;4936817;29;20178;-73
2022/01/11 00:51:14;;;;;;;29.67;14.37;;;1.90;99.90;;;;;;4936509;29;20202;-73
2022/01/11 00:53:40;;;;;;;25.73;13.50;;;1.90;99.90;;;;;;4936579;29;20181;-73
2022/01/11 00:56:06;;;;;;;25.37;13.93;;;1.90;99.90;;;;;;4936604;29;20183;-74
2022/01/11 00:58:32;;;;;;;24.57;12.97;;;1.90;99.90;;;;;;4936891;29;20394;-74
2022/01/11 05:30:59;;;;;;;33.70;17.37;;;1.60;99.90;;;;;;5810833;23;20472;-72
2022/01/11 05:33:24;;;;;;;29.43;16.47;;;1.60;99.90;;;;;;4970915;28;20899;-73
2022/01/11 05:35:50;;;;;;;44.73;17.70;;;1.70;99.90;;;;;;4971972;28;20275;-73
2022/01/11 05:38:15;;;;;;;29.57;16.80;;;1.60;99.90;;;;;;4966574;28;20557;-74
2022/01/11 05:40:41;;;;;;;35.00;16.57;;;1.70;99.90;;;;;;4955475;28;20176;-73
2022/01/11 05:43:06;;;;;;;40.80;18.80;;;1.70;99.90;;;;;;4969747;28;20215;-73
2022/01/11 05:45:32;;;;;;;34.80;18.60;;;1.70;99.90;;;;;;4974458;28;20694;-73
2022/01/11 05:48:00;;;;;;;33.50;17.47;;;1.70;99.90;;;;;;4970046;28;20185;-74
2022/01/11 05:50:26;;;;;;;41.17;18.27;;;1.70;99.90;;;;;;4974231;28;20239;-72
2022/01/11 05:52:51;;;;;;;33.10;18.43;;;1.70;99.90;;;;;;4972763;28;20864;-73
2022/01/11 05:55:17;;;;;;;34.50;17.53;;;1.70;99.90;;;;;;4974269;28;20205;-74
2022/01/11 05:57:43;;;;;;;30.50;18.83;;;1.70;99.90;;;;;;4966918;28;20232;-74
2022/01/11 06:00:16;;;;;;;30.40;17.90;;;1.70;99.90;;;;;;4972022;28;20429;-74
2022/01/11 06:02:46;;;;;;;38.40;18.23;;;1.80;99.90;;;;;;4971685;28;20474;-74
2022/01/11 06:05:12;;;;;;;39.00;17.20;;;1.80;99.90;;;;;;4973940;28;20433;-74
2022/01/11 06:07:39;;;;;;;29.33;17.33;;;1.80;99.90;;;;;;4972042;28;20450;-73
2022/01/11 06:10:06;;;;;;;32.80;20.03;;;1.80;99.90;;;;;;4965469;28;20904;-74
2022/01/11 06:12:31;;;;;;;35.03;19.63;;;1.90;99.90;;;;;;4954289;28;20454;-74
2022/01/11 06:14:57;;;;;;;40.27;19.27;;;1.90;99.90;;;;;;4954297;28;20759;-74
2022/01/11 06:17:22;;;;;;;38.03;19.90;;;2.00;99.90;;;;;;4954493;28;20267;-73
2022/01/11 06:19:48;;;;;;;34.40;18.90;;;2.00;99.90;;;;;;4954357;28;20181;-74
2022/01/11 06:22:13;;;;;;;32.87;18.27;;;2.00;99.90;;;;;;4954197;28;20220;-74
2022/01/11 06:24:39;;;;;;;34.07;19.10;;;2.00;99.90;;;;;;4954027;28;20173;-73
2022/01/11 06:27:04;;;;;;;38.53;19.10;;;2.10;99.90;;;;;;4952823;28;20173;-73
2022/01/11 06:29:30;;;;;;;43.10;18.43;;;2.10;99.90;;;;;;4954061;28;20237;-74
2022/01/11 06:31:56;;;;;;;42.50;17.80;;;2.10;99.90;;;;;;4953588;28;20214;-73
2022/01/11 06:34:21;;;;;;;32.17;17.80;;;2.10;99.90;;;;;;4953973;28;20190;-73
2022/01/11 06:36:47;;;;;;;34.83;19.77;;;2.00;99.90;;;;;;4954018;28;20585;-74
2022/01/11 06:39:12;;;;;;;29.30;18.43;;;2.00;99.90;;;;;;4953928;28;20182;-73
2022/01/11 06:41:38;;;;;;;35.73;18.60;;;2.00;99.90;;;;;;4953793;28;20256;-74
2022/01/11 06:44:05;;;;;;;39.90;20.70;;;2.00;99.90;;;;;;4953664;28;20185;-73
2022/01/11 06:46:31;;;;;;;39.97;18.83;;;2.00;99.90;;;;;;4953857;28;20170;-74
2022/01/11 06:48:59;;;;;;;35.27;17.37;;;2.00;99.90;;;;;;4953821;28;20417;-73
2022/01/11 06:51:25;;;;;;;34.57;19.27;;;2.00;99.90;;;;;;4953681;28;20194;-73
2022/01/11 06:53:50;;;;;;;35.83;18.27;;;2.00;99.90;;;;;;4953575;28;20797;-73
2022/01/11 06:56:17;;;;;;;34.80;18.43;;;2.00;99.90;;;;;;4953857;28;20194;-73
2022/01/11 06:58:43;;;;;;;37.23;19.77;;;1.90;99.90;;;;;;4953920;28;20175;-73
2022/01/11 07:01:09;;;;;;;42.13;19.27;;;1.90;99.90;;;;;;4953338;28;20408;-73
2022/01/11 07:03:34;;;;;;;42.90;19.33;;;2.00;99.90;;;;;;4953676;28;20171;-73
2022/01/11 07:06:00;;;;;;;38.83;18.97;;;1.90;99.90;;;;;;4953465;28;20181;-74
2022/01/11 07:08:25;;;;;;;28.70;18.40;;;1.90;99.90;;;;;;4953689;28;20191;-74
2022/01/11 07:10:52;;;;;;;40.63;19.30;;;2.00;99.90;;;;;;4953466;28;20247;-74
2022/01/11 07:13:18;;;;;;;35.67;18.10;;;1.90;99.90;;;;;;4953337;28;20181;-74
2022/01/11 07:15:43;;;;;;;38.20;17.13;;;2.00;99.90;;;;;;4953535;28;20424;-74
2022/01/11 07:18:10;;;;;;;37.63;19.47;;;2.00;99.90;;;;;;4953447;28;20212;-74
2022/01/11 07:20:37;;;;;;;33.47;18.77;;;2.00;99.90;;;;;;4953358;28;20197;-74
2022/01/11 07:23:03;;;;;;;35.77;18.50;;;2.00;99.90;;;;;;4953106;28;20460;-74
2022/01/11 07:25:32;;;;;;;34.40;18.83;;;2.00;99.90;;;;;;4953600;28;20418;-76
2022/01/11 07:27:58;;;;;;;32.07;18.80;;;2.00;99.90;;;;;;4953332;28;20387;-74
2022/01/11 07:30:24;;;;;;;43.43;20.23;;;2.00;99.90;;;;;;4952018;28;20450;-74
2022/01/11 07:32:50;;;;;;;33.83;19.60;;;2.00;99.90;;;;;;4952020;28;20216;-74
2022/01/11 07:35:16;;;;;;;39.93;19.63;;;2.00;99.90;;;;;;4953462;28;20511;-75
2022/01/11 07:37:41;;;;;;;34.37;19.93;;;2.00;99.90;;;;;;4953193;28;20508;-75
2022/01/11 07:40:08;;;;;;;34.37;19.20;;;2.10;99.90;;;;;;4956229;28;20656;-74
2022/01/11 07:42:33;;;;;;;46.10;20.40;;;2.10;99.90;;;;;;4957000;28;20682;-74
2022/01/11 07:44:59;;;;;;;32.43;18.20;;;2.10;99.90;;;;;;4956996;28;20457;-74
2022/01/11 07:47:24;;;;;;;37.83;19.33;;;2.10;99.90;;;;;;4957220;28;20181;-74
2022/01/11 07:49:50;;;;;;;41.53;20.43;;;2.10;99.90;;;;;;4956874;28;20188;-74
2022/01/11 07:52:16;;;;;;;34.30;20.23;;;2.20;99.90;;;;;;4956900;28;20199;-74
2022/01/11 07:54:42;;;;;;;33.00;19.00;;;2.20;99.90;;;;;;4956587;28;20320;-74
2022/01/11 07:57:07;;;;;;;33.83;19.73;;;2.20;99.90;;;;;;4956948;28;20482;-74
2022/01/11 07:59:33;;;;;;;50.77;21.60;;;2.20;99.90;;;;;;4956885;28;20861;-74
2022/01/11 08:01:59;;;;;;;33.37;20.20;;;2.30;99.90;;;;;;4956417;28;20212;-74
2022/01/11 08:04:26;;;;;;;34.30;20.73;;;2.30;99.90;;;;;;4956758;28;20175;-74
2022/01/11 08:06:52;;;;;;;37.30;20.20;;;2.40;99.90;;;;;;4956771;28;20409;-75
2022/01/11 08:09:18;;;;;;;34.40;20.53;;;2.40;99.90;;;;;;4956775;28;20487;-74
2022/01/11 08:11:44;;;;;;;39.83;19.80;;;2.40;99.90;;;;;;4956410;28;20203;-75
2022/01/11 08:14:09;;;;;;;41.93;20.07;;;2.40;99.90;;;;;;4956513;28;20175;-75
2022/01/11 08:16:35;;;;;;;40.50;19.60;;;2.50;99.90;;;;;;4956424;28;20420;-75
2022/01/11 08:19:01;;;;;;;40.77;21.73;;;2.50;99.90;;;;;;4956630;28;20180;-74
2022/01/11 08:21:26;;;;;;;48.67;22.10;;;2.60;99.90;;;;;;4956227;28;20200;-75
2022/01/11 08:23:52;;;;;;;38.67;21.47;;;2.60;99.90;;;;;;4956201;28;20180;-75
2022/01/11 08:26:17;;;;;;;49.20;21.83;;;2.70;99.90;;;;;;4956414;28;20173;-74
2022/01/11 08:28:44;;;;;;;51.33;23.67;;;2.80;99.90;;;;;;4956372;28;20181;-74
2022/01/11 08:31:09;;;;;;;47.17;26.27;;;2.90;99.90;;;;;;4956103;28;20201;-74
2022/01/11 08:33:35;;;;;;;40.37;22.30;;;2.90;99.90;;;;;;4956037;28;20433;-74
2022/01/11 08:36:01;;;;;;;35.87;20.90;;;2.90;99.90;;;;;;4956545;28;20182;-74
2022/01/11 08:38:26;;;;;;;37.63;19.90;;;2.90;99.90;;;;;;4956220;28;20260;-75
2022/01/11 08:40:52;;;;;;;42.90;21.47;;;3.00;99.90;;;;;;4955922;28;20201;-74
2022/01/11 08:43:18;;;;;;;46.00;21.17;;;3.00;99.90;;;;;;4955956;28;20204;-74
2022/01/11 08:45:43;;;;;;;39.70;22.90;;;3.00;99.90;;;;;;4956005;28;20192;-74
2022/01/11 08:48:09;;;;;;;40.40;22.10;;;3.10;99.90;;;;;;4956021;28;20221;-74
2022/01/11 08:50:35;;;;;;;31.43;20.37;;;3.20;99.90;;;;;;4955433;28;20176;-75
2022/01/11 08:53:02;;;;;;;39.00;21.17;;;3.30;99.90;;;;;;4955740;28;20184;-75
2022/01/11 08:55:28;;;;;;;40.67;21.70;;;3.30;99.90;;;;;;4955858;28;20213;-75
2022/01/11 08:57:53;;;;;;;39.47;20.67;;;3.30;99.90;;;;;;4955797;28;20934;-74
2022/01/11 09:00:19;;;;;;;40.03;20.67;;;3.30;99.90;;;;;;4955739;28;20209;-74
2022/01/11 09:02:51;;;;;;;41.23;20.70;;;3.40;99.90;;;;;;4955429;28;20296;-73
2022/01/11 09:05:18;;;;;;;42.00;21.53;;;3.40;99.90;;;;;;4954326;28;20204;-75
2022/01/11 09:07:44;;;;;;;38.23;21.87;;;3.50;99.90;;;;;;4953643;28;20428;-73
2022/01/11 09:10:10;;;;;;;36.33;20.07;;;3.50;99.90;;;;;;4954958;28;20454;-75
2022/01/11 09:12:36;;;;;;;35.63;20.80;;;3.50;99.90;;;;;;4955136;28;20518;-73
2022/01/11 09:15:05;;;;;;;36.97;19.40;;;3.60;99.90;;;;;;4954989;28;20428;-73
2022/01/11 09:17:30;;;;;;;36.63;19.77;;;3.60;99.90;;;;;;4955568;28;20482;-73
2022/01/11 09:19:56;;;;;;;35.83;19.60;;;3.70;99.90;;;;;;4955349;28;20498;-73
2022/01/11 09:22:22;;;;;;;30.30;19.07;;;3.70;99.90;;;;;;4955319;28;20641;-73
2022/01/11 09:24:47;;;;;;;32.93;17.30;;;3.70;99.90;;;;;;4954771;28;20182;-74
2022/01/11 09:27:14;;;;;;;31.60;18.33;;;3.70;99.90;;;;;;4955481;28;20189;-73
2022/01/11 09:29:41;;;;;;;30.83;17.80;;;3.70;99.90;;;;;;4955384;28;20179;-73
2022/01/11 09:32:08;;;;;;;31.00;17.40;;;3.80;99.90;;;;;;4954920;28;20499;-73
2022/01/11 09:34:34;;;;;;;34.10;17.77;;;3.90;99.90;;;;;;4954626;28;20422;-73
2022/01/11 09:37:00;;;;;;;33.30;18.77;;;3.90;99.90;;;;;;4955320;28;20731;-73
2022/01/11 09:39:25;;;;;;;34.77;19.13;;;4.00;99.90;;;;;;4955196;28;20455;-74
2022/01/11 09:41:51;;;;;;;32.20;17.90;;;4.00;99.90;;;;;;4954702;28;20204;-73
2022/01/11 09:44:17;;;;;;;34.20;19.70;;;3.90;99.90;;;;;;4954664;28;20209;-74
2022/01/11 09:46:43;;;;;;;33.10;17.90;;;4.00;99.90;;;;;;4967734;28;20182;-74
2022/01/11 09:49:08;;;;;;;40.30;20.47;;;4.00;99.90;;;;;;4974105;28;20386;-74
2022/01/11 09:51:36;;;;;;;33.27;19.07;;;4.10;99.90;;;;;;4973779;28;20204;-73
2022/01/11 09:54:02;;;;;;;29.97;17.07;;;4.10;99.90;;;;;;4974078;28;20177;-73
2022/01/11 09:56:28;;;;;;;31.53;17.33;;;4.20;99.90;;;;;;4973888;28;20506;-73
2022/01/11 09:58:54;;;;;;;46.13;24.53;;;4.20;99.90;;;;;;4974134;28;20563;-73
2022/01/11 10:01:19;;;;;;;30.67;18.40;;;4.20;99.90;;;;;;4973731;28;20637;-74
2022/01/11 10:03:57;;;;;;;30.87;18.20;;;4.20;99.90;;;;;;4972076;28;20177;-74
2022/01/11 10:06:24;;;;;;;29.47;17.20;;;4.30;99.90;;;;;;4973456;28;20172;-74
2022/01/11 10:08:49;;;;;;;28.33;16.20;;;4.30;99.90;;;;;;4973812;28;20417;-74
2022/01/11 10:11:36;;;;;;;33.47;15.60;;;4.30;99.90;;;;;;4973430;28;20403;-73
2022/01/11 10:14:24;;;;;;;23.53;15.57;;;4.30;99.90;;;;;;4973612;28;20169;-74
2022/01/11 10:17:03;;;;;;;31.37;15.77;;;4.30;99.90;;;;;;4973302;28;20409;-72
2022/01/11 10:19:29;;;;;;;38.00;17.70;;;4.30;99.90;;;;;;4973583;28;20470;-73
2022/01/11 10:21:54;;;;;;;24.80;14.33;;;4.40;99.90;;;;;;4973113;28;20543;-73
2022/01/11 10:24:42;;;;;;;29.73;17.13;;;4.50;99.90;;;;;;4973167;28;20192;-73
2022/01/11 10:27:15;;;;;;;24.60;13.67;;;4.60;99.90;;;;;;4973095;28;20220;-74
2022/01/11 10:29:55;;;;;;;28.23;14.60;;;4.70;99.90;;;;;;4973369;28;20379;-74
2022/01/11 10:32:36;;;;;;;25.80;15.90;;;4.80;99.90;;;;;;4973192;28;20559;-74
2022/01/11 10:35:05;;;;;;;25.33;14.87;;;4.90;99.90;;;;;;4972919;28;20398;-74
2022/01/11 10:37:31;;;;;;;28.80;15.20;;;4.90;99.90;;;;;;4973107;28;20505;-74
2022/01/11 10:40:03;;;;;;;27.90;15.73;;;5.00;99.90;;;;;;4973010;28;20399;-73
2022/01/11 10:42:33;;;;;;;24.47;15.10;;;5.00;99.90;;;;;;4973364;28;20226;-74
2022/01/11 10:45:05;;;;;;;22.63;15.70;;;5.00;99.90;;;;;;4972820;28;21029;-74
2022/01/11 10:47:34;;;;;;;26.97;15.90;;;5.00;99.90;;;;;;4972995;28;20383;-74
2022/01/11 10:50:06;;;;;;;26.13;16.17;;;5.10;99.90;;;;;;4972896;28;20794;-74
2022/01/11 10:52:34;;;;;;;24.10;15.27;;;5.10;99.90;;;;;;4972935;28;20411;-74
2022/01/11 10:55:02;;;;;;;22.97;14.63;;;5.20;99.90;;;;;;4972288;28;20423;-74
2022/01/11 10:57:29;;;;;;;25.00;14.73;;;5.30;99.90;;;;;;4972945;28;20432;-73
2022/01/11 11:00:12;;;;;;;26.30;14.77;;;5.30;99.90;;;;;;4972882;28;20395;-72
2022/01/11 11:02:39;;;;;;;25.70;14.40;;;5.40;99.90;;;;;;4972883;28;20466;-73
2022/01/11 11:05:23;;;;;;;23.93;15.90;;;5.40;99.90;;;;;;4972427;28;20906;-72
2022/01/11 11:08:02;;;;;;;29.67;16.27;;;5.40;99.90;;;;;;4972520;28;20421;-72
2022/01/11 11:10:44;;;;;;;24.10;14.50;;;5.40;99.90;;;;;;4972772;28;20551;-73
2022/01/11 11:13:16;;;;;;;25.57;14.27;;;5.50;99.90;;;;;;4972539;28;20413;-72
2022/01/11 11:15:41;;;;;;;21.23;13.97;;;5.60;99.90;;;;;;4972768;28;20414;-73
2022/01/11 11:18:21;;;;;;;17.37;12.50;;;5.70;99.90;;;;;;4972567;28;20388;-72
2022/01/11 11:20:47;;;;;;;23.03;13.20;;;5.90;99.90;;;;;;4972776;28;20256;-73
2022/01/11 11:23:15;;;;;;;19.67;13.83;;;5.90;99.90;;;;;;4972379;28;20997;-71
2022/01/11 11:25:40;;;;;;;21.53;13.13;;;6.00;99.90;;;;;;4972260;28;20184;-73
2022/01/11 11:28:06;;;;;;;24.40;13.77;;;6.10;99.90;;;;;;4972550;28;20409;-73
2022/01/11 11:30:33;;;;;;;22.13;13.20;;;6.00;99.90;;;;;;4972621;28;20273;-74
2022/01/11 11:33:00;;;;;;;18.40;13.00;;;6.10;99.90;;;;;;4972155;28;20434;-73
2022/01/11 11:35:25;;;;;;;21.40;12.70;;;6.10;99.90;;;;;;4972385;28;20777;-73
2022/01/11 11:38:03;;;;;;;23.57;13.03;;;6.00;99.90;;;;;;4972474;28;20954;-72
2022/01/11 11:40:30;;;;;;;20.77;11.83;;;6.00;99.90;;;;;;4972567;28;20270;-73
2022/01/11 11:43:00;;;;;;;17.17;10.60;;;6.00;99.90;;;;;;4972214;28;20441;-73
2022/01/11 11:45:29;;;;;;;18.37;11.43;;;6.00;99.90;;;;;;4972255;28;20423;-73
2022/01/11 11:48:09;;;;;;;16.27;11.17;;;5.90;99.90;;;;;;4972479;28;20894;-73
2022/01/11 11:50:47;;;;;;;16.40;11.40;;;5.90;99.90;;;;;;4971040;28;20422;-73
2022/01/11 11:53:28;;;;;;;18.90;11.10;;;6.00;99.90;;;;;;4972314;28;20380;-73
2022/01/11 11:56:25;;;;;;;13.37;9.03;;;6.00;99.90;;;;;;4972281;28;20388;-72
2022/01/11 11:58:55;;;;;;;16.87;9.30;;;6.00;99.90;;;;;;4972262;28;20413;-73
2022/01/11 12:01:46;;;;;;;16.10;9.47;;;6.00;99.90;;;;;;4972074;28;20456;-72
2022/01/11 12:04:36;;;;;;;5.33;3.30;;;6.00;99.90;;;;;;4972055;28;20474;-73
2022/01/11 12:07:32;;;;;;;9.13;5.00;;;5.90;99.90;;;;;;4971882;28;20454;-73
2022/01/11 12:09:59;;;;;;;8.40;5.30;;;6.00;99.90;;;;;;4972481;28;20834;-73
2022/01/11 12:12:49;;;;;;;7.53;5.17;;;6.10;99.90;;;;;;4971974;28;20883;-74
2022/01/11 12:15:36;;;;;;;8.00;5.53;;;6.40;99.90;;;;;;4971926;28;20759;-74
2022/01/11 12:18:04;;;;;;;6.50;5.17;;;6.80;99.90;;;;;;4972084;28;20424;-73
2022/01/11 12:20:40;;;;;;;7.23;4.90;;;6.90;99.90;;;;;;4971842;28;20428;-72
2022/01/11 12:23:06;;;;;;;10.50;6.47;;;6.90;99.90;;;;;;4972033;28;20433;-72
2022/01/11 12:25:33;;;;;;;10.60;6.70;;;6.70;99.90;;;;;;4973290;28;20430;-73
2022/01/11 12:28:17;;;;;;;7.87;6.23;;;6.60;99.90;;;;;;4976012;28;20452;-73
2022/01/11 12:30:44;;;;;;;6.70;5.27;;;6.50;99.90;;;;;;4975312;28;20418;-72
2022/01/11 12:33:09;;;;;;;7.50;6.20;;;6.40;99.90;;;;;;4975457;28;20458;-73
2022/01/11 12:35:51;;;;;;;7.10;5.30;;;6.30;99.90;;;;;;4975244;28;20417;-73
2022/01/11 12:38:17;;;;;;;6.00;3.57;;;6.10;99.90;;;;;;4975503;28;20495;-73
2022/01/11 12:40:44;;;;;;;7.97;5.53;;;6.00;99.90;;;;;;4975207;28;20392;-73
2022/01/11 12:43:19;;;;;;;8.03;4.87;;;5.80;99.90;;;;;;4974957;28;20454;-71
2022/01/11 12:45:55;;;;;;;7.27;5.10;;;5.70;99.90;;;;;;4974966;28;20403;-73
2022/01/11 12:48:42;;;;;;;12.10;5.13;;;5.70;99.90;;;;;;4975166;28;20488;-73
2022/01/11 12:51:28;;;;;;;5.70;3.80;;;5.70;99.90;;;;;;4975137;28;20404;-73
2022/01/11 12:54:17;;;;;;;6.23;3.90;;;5.70;99.90;;;;;;4975017;28;20919;-73
2022/01/11 12:56:45;;;;;;;4.97;4.47;;;5.70;99.90;;;;;;4974877;28;20420;-74
2022/01/11 12:59:10;;;;;;;4.30;3.60;;;5.70;99.90;;;;;;4974834;28;20417;-73
2022/01/11 13:01:36;;;;;;;5.60;4.27;;;5.60;99.90;;;;;;4974283;28;20873;-74
2022/01/11 13:04:02;;;;;;;2.50;2.33;;;5.60;99.90;;;;;;4973650;28;20206;-72
2022/01/11 13:06:30;;;;;;;4.63;3.20;;;5.60;99.90;;;;;;4974812;28;20204;-73
2022/01/11 13:08:59;;;;;;;6.10;4.10;;;5.60;99.90;;;;;;4974649;28;20464;-73
2022/01/11 13:11:25;;;;;;;7.93;4.23;;;5.60;99.90;;;;;;4974759;28;20448;-73
2022/01/11 13:14:46;;;;;;;7.10;4.23;;;5.60;99.90;;;;;;4974731;28;20426;-74
2022/01/11 13:17:00;;;;;;;5.00;3.73;;;5.60;99.90;;;;;;4971498;28;20285;-74
2022/01/11 13:19:29;;;;;;;4.20;3.40;;;5.50;99.90;;;;;;4974660;28;20440;-73
2022/01/11 13:22:07;;;;;;;3.10;2.80;;;5.50;99.90;;;;;;4974727;28;20482;-73
2022/01/11 13:24:35;;;;;;;4.17;3.60;;;5.50;99.90;;;;;;4974775;28;20398;-73
2022/01/11 13:27:08;;;;;;;4.93;3.03;;;5.50;99.90;;;;;;4975046;28;20417;-73
2022/01/11 13:29:35;;;;;;;7.80;4.60;;;5.50;99.90;;;;;;4966726;28;20397;-74
2022/01/11 13:32:00;;;;;;;3.93;2.73;;;5.40;99.90;;;;;;4955698;28;20433;-74
2022/01/11 13:34:26;;;;;;;3.73;2.97;;;5.30;99.90;;;;;;4954725;28;20464;-73
2022/01/11 13:36:56;;;;;;;6.40;2.97;;;5.30;99.90;;;;;;4953970;28;20180;-73
2022/01/11 13:39:35;;;;;;;4.87;3.20;;;5.20;99.90;;;;;;4954918;28;20852;-72
2022/01/11 13:42:08;;;;;;;4.00;3.00;;;5.20;99.90;;;;;;4954906;28;20556;-73
2022/01/11 13:44:37;;;;;;;4.43;3.27;;;5.30;99.90;;;;;;4954334;28;20415;-73
2022/01/11 13:47:10;;;;;;;3.13;2.20;;;5.30;99.90;;;;;;4954981;28;20421;-73
2022/01/11 13:49:41;;;;;;;4.70;3.13;;;5.30;99.90;;;;;;4954460;28;20391;-73
2022/01/11 13:52:17;;;;;;;8.30;2.60;;;5.30;99.90;;;;;;4954581;28;20438;-74
2022/01/11 13:54:52;;;;;;;4.23;2.93;;;5.20;99.90;;;;;;4954212;28;20397;-74
2022/01/11 13:57:20;;;;;;;6.37;3.87;;;5.20;99.90;;;;;;4954710;28;20417;-74
2022/01/11 13:59:55;;;;;;;3.70;3.40;;;5.20;99.90;;;;;;4953108;29;20537;-74
2022/01/11 14:02:29;;;;;;;4.40;3.13;;;5.10;99.90;;;;;;4954517;28;20476;-74
2022/01/11 14:04:59;;;;;;;5.13;2.60;;;5.00;99.90;;;;;;4958822;28;20492;-72
2022/01/11 14:07:30;;;;;;;4.47;3.30;;;5.00;99.90;;;;;;4954926;28;20509;-73
2022/01/11 14:10:03;;;;;;;2.97;2.67;;;5.10;99.90;;;;;;4961446;28;20400;-72
2022/01/11 14:12:38;;;;;;;4.10;3.20;;;5.10;99.90;;;;;;4951295;28;20967;-74
2022/01/11 14:15:06;;;;;;;6.67;4.30;;;5.10;99.90;;;;;;4951091;28;20937;-72
2022/01/11 14:17:35;;;;;;;3.63;2.93;;;5.10;99.90;;;;;;4952247;28;20393;-72
2022/01/11 14:20:05;;;;;;;3.70;3.40;;;5.00;99.90;;;;;;4950786;28;20456;-74
2022/01/11 14:22:44;;;;;;;4.23;3.10;;;5.00;99.90;;;;;;4951084;28;20445;-74
2022/01/11 14:25:22;;;;;;;4.00;3.53;;;4.90;99.90;;;;;;4968306;28;20460;-72
2022/01/11 14:27:56;;;;;;;4.80;3.50;;;4.90;99.90;;;;;;4953723;28;20417;-74
2022/01/11 14:30:22;;;;;;;3.80;3.30;;;4.80;99.90;;;;;;4954264;28;20463;-73
2022/01/11 14:32:53;;;;;;;3.73;3.43;;;4.80;99.90;;;;;;4953537;28;20465;-73
2022/01/11 14:35:22;;;;;;;2.77;2.57;;;4.90;99.90;;;;;;4952521;28;20182;-73
2022/01/11 14:38:09;;;;;;;4.57;3.50;;;4.80;99.90;;;;;;4952831;28;20388;-74
2022/01/11 14:40:41;;;;;;;8.37;3.33;;;4.80;99.90;;;;;;4936535;29;20805;-73
2022/01/11 14:43:07;;;;;;;3.80;3.40;;;4.80;99.90;;;;;;4952538;28;20468;-74
2022/01/11 14:45:39;;;;;;;8.10;3.90;;;4.80;99.90;;;;;;4953443;28;20786;-73
2022/01/11 14:48:05;;;;;;;6.30;3.80;;;4.70;99.90;;;;;;4953647;28;20502;-73
2022/01/11 14:50:31;;;;;;;3.73;3.43;;;4.70;99.90;;;;;;4953319;28;20559;-73
2022/01/11 14:53:07;;;;;;;4.30;3.90;;;4.70;99.90;;;;;;4953567;28;20399;-73
2022/01/11 14:55:48;;;;;;;5.10;4.33;;;4.70;99.90;;;;;;4952163;28;20429;-74
2022/01/11 14:58:19;;;;;;;5.13;3.90;;;4.70;99.90;;;;;;4953813;28;20440;-73
2022/01/11 15:00:52;;;;;;;6.97;4.63;;;4.70;99.90;;;;;;4953319;28;20418;-74
2022/01/11 15:03:34;;;;;;;8.30;4.43;;;4.60;99.90;;;;;;4953507;28;20552;-73
2022/01/11 15:06:08;;;;;;;6.23;4.50;;;4.60;99.90;;;;;;4954072;28;20463;-73
2022/01/11 15:08:36;;;;;;;6.27;4.00;;;4.60;99.90;;;;;;4953379;28;20914;-73
2022/01/11 15:11:08;;;;;;;6.07;3.77;;;4.50;99.90;;;;;;4953450;28;20437;-74
2022/01/11 15:13:39;;;;;;;4.50;4.10;;;4.40;99.90;;;;;;4953101;28;20387;-74
2022/01/11 15:16:06;;;;;;;5.30;4.20;;;4.40;99.90;;;;;;4953717;28;20910;-74
2022/01/11 15:18:31;;;;;;;4.40;3.87;;;4.30;99.90;;;;;;4953553;28;20946;-74
2022/01/11 15:20:57;;;;;;;6.60;4.53;;;4.30;99.90;;;;;;4953045;28;20432;-74
2022/01/11 15:23:22;;;;;;;7.20;3.70;;;4.30;99.90;;;;;;4953281;28;20210;-74
2022/01/11 15:25:49;;;;;;;3.87;3.47;;;4.30;99.90;;;;;;4953064;28;20184;-74
2022/01/11 15:28:15;;;;;;;5.37;3.70;;;4.30;99.90;;;;;;4953558;28;20176;-72
2022/01/11 15:30:40;;;;;;;5.97;4.80;;;4.30;99.90;;;;;;4952989;28;20993;-73
2022/01/11 15:33:06;;;;;;;5.43;4.43;;;4.30;99.90;;;;;;4953515;28;20189;-73
2022/01/11 15:35:31;;;;;;;4.40;4.00;;;4.30;99.90;;;;;;4952909;28;20722;-72
2022/01/11 15:37:57;;;;;;;6.13;4.30;;;4.30;99.90;;;;;;4953631;28;20223;-73
2022/01/11 15:40:24;;;;;;;5.40;4.10;;;4.30;99.90;;;;;;4953449;28;20240;-73
2022/01/11 15:42:49;;;;;;;5.97;4.57;;;4.30;99.90;;;;;;4952812;28;20447;-72
2022/01/11 15:45:15;;;;;;;9.17;4.80;;;4.30;99.90;;;;;;4953227;28;20809;-73
2022/01/11 15:47:40;;;;;;;10.20;4.93;;;4.30;99.90;;;;;;4953156;28;20176;-74
2022/01/11 15:50:06;;;;;;;8.90;3.80;;;4.40;99.90;;;;;;4953280;28;20685;-74
2022/01/11 15:52:32;;;;;;;7.03;5.63;;;4.40;99.90;;;;;;4952672;28;20210;-74
2022/01/11 15:54:57;;;;;;;4.47;4.07;;;4.40;99.90;;;;;;4952815;28;20571;-73
2022/01/11 15:57:23;;;;;;;6.23;4.60;;;4.40;99.90;;;;;;4953240;28;20191;-74
2022/01/11 15:59:48;;;;;;;6.83;4.10;;;4.30;99.90;;;;;;4953215;28;20268;-74
2022/01/11 16:02:14;;;;;;;8.90;4.83;;;4.30;99.90;;;;;;4956637;28;20212;-74
2022/01/11 16:04:40;;;;;;;7.23;4.10;;;4.30;99.90;;;;;;4956774;28;20177;-74
2022/01/11 16:07:06;;;;;;;4.63;4.23;;;4.20;99.90;;;;;;4956877;28;20181;-74
2022/01/11 16:09:32;;;;;;;7.40;4.70;;;4.20;99.90;;;;;;4956837;28;20437;-75
2022/01/11 16:11:57;;;;;;;6.37;3.80;;;4.20;99.90;;;;;;4956371;28;20948;-74
2022/01/11 16:14:23;;;;;;;5.20;4.00;;;4.20;99.90;;;;;;4956513;28;20178;-76
2022/01/11 16:16:50;;;;;;;10.43;4.83;;;4.20;99.90;;;;;;4956695;28;20652;-75
2022/01/11 16:19:15;;;;;;;6.87;4.70;;;4.20;99.90;;;;;;4956561;28;20656;-75
2022/01/11 16:21:41;;;;;;;8.77;4.93;;;4.20;99.90;;;;;;4956213;29;20473;-74
2022/01/11 16:24:07;;;;;;;8.83;4.80;;;4.10;99.90;;;;;;4956389;28;20670;-74
2022/01/11 16:26:34;;;;;;;6.67;4.57;;;4.10;99.90;;;;;;4956302;28;20180;-74
2022/01/11 16:29:00;;;;;;;6.43;5.77;;;4.10;99.90;;;;;;4956344;28;20207;-73
2022/01/11 16:31:25;;;;;;;6.40;5.40;;;4.10;99.90;;;;;;4955999;28;20924;-74
2022/01/11 16:33:51;;;;;;;9.97;5.33;;;4.10;99.90;;;;;;4955973;28;20728;-74
2022/01/11 16:36:17;;;;;;;6.07;4.80;;;4.00;99.90;;;;;;4956066;28;20430;-75
2022/01/11 16:38:42;;;;;;;7.23;5.70;;;4.00;99.90;;;;;;4956261;28;20178;-75
2022/01/11 16:43:33;;;;;;;7.43;5.00;;;4.00;99.90;;;;;;4953970;28;20224;-75
2022/01/11 16:46:07;;;;;;;8.87;5.07;;;4.00;99.90;;;;;;4966270;28;20205;-74
2022/01/11 16:48:34;;;;;;;5.50;4.73;;;4.00;99.90;;;;;;4975041;28;20725;-74
2022/01/11 16:50:59;;;;;;;6.80;5.07;;;4.00;99.90;;;;;;4975032;28;20972;-74
2022/01/11 16:53:25;;;;;;;5.90;4.67;;;4.00;99.90;;;;;;4974349;28;20470;-75
2022/01/11 16:55:52;;;;;;;4.83;4.27;;;3.90;99.90;;;;;;4974661;28;20219;-74
2022/01/11 16:58:17;;;;;;;7.10;4.83;;;3.90;99.90;;;;;;4974502;28;20208;-75
2022/01/11 17:00:45;;;;;;;6.30;4.70;;;3.90;99.90;;;;;;4974652;28;20418;-74
2022/01/11 17:03:11;;;;;;;5.40;4.27;;;3.90;99.90;;;;;;4974426;28;20262;-73
2022/01/11 17:05:37;;;;;;;6.83;4.70;;;3.90;99.90;;;;;;4974534;28;21000;-74
2022/01/11 17:08:04;;;;;;;6.83;3.87;;;3.90;99.90;;;;;;4975052;28;20436;-75
2022/01/11 17:10:30;;;;;;;6.40;4.70;;;3.90;99.90;;;;;;4974408;28;20430;-72
2022/01/11 17:12:56;;;;;;;6.80;4.47;;;3.90;99.90;;;;;;4974138;28;20418;-74
2022/01/11 17:15:23;;;;;;;5.03;4.27;;;3.90;99.90;;;;;;4974192;28;20527;-74
2022/01/11 17:17:49;;;;;;;6.10;4.17;;;3.90;99.90;;;;;;4974386;28;20503;-75
2022/01/11 17:20:15;;;;;;;6.23;4.33;;;3.90;99.90;;;;;;4974403;28;20462;-75
2022/01/11 17:22:42;;;;;;;4.67;4.17;;;3.80;99.90;;;;;;4974074;28;20453;-75
2022/01/11 17:25:10;;;;;;;6.33;4.33;;;3.80;99.90;;;;;;4974097;28;20490;-74
2022/01/11 17:27:38;;;;;;;6.73;4.47;;;3.80;99.90;;;;;;4974325;28;20758;-75
2022/01/11 17:30:05;;;;;;;5.77;3.57;;;3.80;99.90;;;;;;4974228;28;20496;-74